createdAt,value
2023-05-13T00:00:26.986Z,8.35
2023-05-13T00:02:54.928Z,5.82
2023-05-13T00:05:22.720Z,7.10
2023-05-13T00:07:51.810Z,10.18
2023-05-13T00:10:20.519Z,7.20
2023-05-13T00:12:48.624Z,5.30
2023-05-13T00:15:16.462Z,7.43
2023-05-13T00:17:44.337Z,7.80
2023-05-13T00:20:12.600Z,7.15
2023-05-13T00:22:40.349Z,8.07
2023-05-13T00:25:10.925Z,6.13
2023-05-13T00:27:38.868Z,7.00
2023-05-13T00:30:08.358Z,13.60
2023-05-13T00:32:36.408Z,6.07
2023-05-13T00:35:04.379Z,7.10
2023-05-13T00:37:32.146Z,11.02
2023-05-13T00:39:59.888Z,6.07
2023-05-13T00:42:29.084Z,6.07
2023-05-13T00:44:56.786Z,9.82
2023-05-13T00:47:24.533Z,8.43
2023-05-13T00:49:53.198Z,11.47
2023-05-13T00:52:21.142Z,7.43
2023-05-13T00:54:48.835Z,5.32
2023-05-13T00:57:16.645Z,7.78
2023-05-13T00:59:45.777Z,11.60
2023-05-13T01:02:20.327Z,7.20
2023-05-13T01:05:04.208Z,8.38
2023-05-13T01:07:40.096Z,8.18
2023-05-13T01:10:16.563Z,10.80
2023-05-13T01:12:47.359Z,7.00
2023-05-13T01:15:21.479Z,5.72
2023-05-13T01:17:58.449Z,9.37
2023-05-13T01:20:29.200Z,6.07
2023-05-13T01:22:58.453Z,6.18
2023-05-13T01:25:26.551Z,6.30
2023-05-13T01:27:54.781Z,13.75
2023-05-13T01:30:23.875Z,7.80
2023-05-13T01:32:53.485Z,7.22
2023-05-13T01:35:22.450Z,5.82
2023-05-13T01:37:51.340Z,8.85
2023-05-13T01:40:31.868Z,6.43
2023-05-13T01:43:00.613Z,7.13
2023-05-13T01:45:29.943Z,7.82
2023-05-13T01:47:57.813Z,5.78
2023-05-13T01:50:26.294Z,10.40
2023-05-13T01:52:54.120Z,9.98
2023-05-13T01:55:23.294Z,7.90
2023-05-13T01:57:51.137Z,13.73
2023-05-13T02:00:19.792Z,9.18
2023-05-13T02:02:47.930Z,5.85
2023-05-13T02:05:22.750Z,9.00
2023-05-13T02:07:50.607Z,8.17
2023-05-13T02:10:18.598Z,9.03
2023-05-13T02:12:47.922Z,8.25
2023-05-13T02:15:15.794Z,8.07
2023-05-13T02:17:43.649Z,8.27
2023-05-13T02:20:12.608Z,6.93
2023-05-13T02:22:40.366Z,9.53
2023-05-13T02:25:09.448Z,9.93
2023-05-13T02:27:37.212Z,7.73
2023-05-13T02:30:07.891Z,9.83
2023-05-13T02:32:35.767Z,10.53
2023-05-13T02:35:03.526Z,15.50
2023-05-13T02:37:31.562Z,10.27
2023-05-13T02:39:59.510Z,8.97
2023-05-13T02:42:27.294Z,7.07
2023-05-13T02:44:55.061Z,8.57
2023-05-13T02:47:24.203Z,7.20
2023-05-13T02:49:52.050Z,7.83
2023-05-13T02:52:19.870Z,8.10
2023-05-13T02:54:47.722Z,6.97
2023-05-13T02:57:15.579Z,7.67
2023-05-13T02:59:43.310Z,7.53
2023-05-13T03:02:11.114Z,8.47
2023-05-13T03:04:41.212Z,9.57
2023-05-13T03:07:08.996Z,7.63
2023-05-13T03:09:39.207Z,10.77
2023-05-13T03:12:07.961Z,10.47
2023-05-13T03:14:37.103Z,12.60
2023-05-13T03:17:05.000Z,11.00
2023-05-13T03:19:32.877Z,8.10
2023-05-13T03:22:02.003Z,8.57
2023-05-13T03:24:30.132Z,10.33
2023-05-13T03:26:58.121Z,8.20
2023-05-13T03:29:26.059Z,6.90
2023-05-13T03:31:54.517Z,10.70
2023-05-13T03:34:22.309Z,10.10
2023-05-13T03:36:50.115Z,9.20
2023-05-13T03:39:19.235Z,9.07
2023-05-13T03:41:47.123Z,6.57
2023-05-13T03:44:14.970Z,7.50
2023-05-13T03:46:43.496Z,10.80
2023-05-13T03:49:11.465Z,8.10
2023-05-13T03:51:39.345Z,13.07
2023-05-13T03:54:07.501Z,7.70
2023-05-13T03:56:36.655Z,9.93
2023-05-13T03:59:04.438Z,8.47
2023-05-13T04:01:32.242Z,10.30
2023-05-13T04:04:00.074Z,12.43
2023-05-13T04:06:28.129Z,11.30
2023-05-13T04:08:55.863Z,9.23
2023-05-13T04:11:23.643Z,10.00
2023-05-13T04:13:52.778Z,18.10
2023-05-13T04:16:21.317Z,8.37
2023-05-13T04:18:49.192Z,9.40
2023-05-13T04:21:16.948Z,7.00
2023-05-13T04:23:44.698Z,12.20
2023-05-13T04:26:12.533Z,13.67
2023-05-13T04:28:40.361Z,11.67
2023-05-13T04:31:09.659Z,7.93
2023-05-13T04:33:37.413Z,10.30
2023-05-13T04:36:05.868Z,8.07
2023-05-13T04:38:33.701Z,9.50
2023-05-13T04:41:01.431Z,7.70
2023-05-13T04:43:29.280Z,7.50
2023-05-13T04:45:57.115Z,9.67
2023-05-13T04:48:27.986Z,11.30
2023-05-13T04:50:56.582Z,8.83
2023-05-13T04:53:24.916Z,12.77
2023-05-13T04:55:57.212Z,9.73
2023-05-13T04:58:24.977Z,12.43
2023-05-13T05:00:52.756Z,13.97
2023-05-13T05:03:20.845Z,10.17
2023-05-13T05:05:50.069Z,7.10
2023-05-13T05:08:17.999Z,10.43
2023-05-13T05:10:45.786Z,8.93
2023-05-13T05:13:13.662Z,8.53
2023-05-13T05:15:41.739Z,7.70
2023-05-13T05:18:10.211Z,8.27
2023-05-13T05:20:39.166Z,12.03
2023-05-13T05:23:10.500Z,9.25
2023-05-13T05:25:38.436Z,6.65
2023-05-13T05:28:06.440Z,12.38
2023-05-13T05:30:39.592Z,10.60
2023-05-13T05:33:08.150Z,8.57
2023-05-13T05:35:37.321Z,6.88
2023-05-13T05:38:05.670Z,9.30
2023-05-13T05:40:36.900Z,8.13
2023-05-13T05:43:04.728Z,9.07
2023-05-13T05:45:32.829Z,7.13
2023-05-13T05:48:00.592Z,8.15
2023-05-13T05:50:28.988Z,7.65
2023-05-13T05:52:57.257Z,8.18
2023-05-13T05:55:25.154Z,14.45
2023-05-13T05:57:54.431Z,12.70
2023-05-13T06:00:22.669Z,7.15
2023-05-13T06:02:51.057Z,10.32
2023-05-13T06:05:19.004Z,6.30
2023-05-13T06:07:46.858Z,11.32
2023-05-13T06:10:14.641Z,7.85
2023-05-13T06:12:42.418Z,8.80
2023-05-13T06:15:12.426Z,7.38
2023-05-13T06:17:40.780Z,11.45
2023-05-13T06:20:09.170Z,10.15
2023-05-13T06:22:36.980Z,6.18
2023-05-13T06:25:05.491Z,9.25
2023-05-13T06:27:34.018Z,9.73
2023-05-13T06:30:01.795Z,9.02
2023-05-13T06:32:30.995Z,7.40
2023-05-13T06:34:58.909Z,5.95
2023-05-13T06:37:26.910Z,6.25
2023-05-13T06:39:54.666Z,5.13
2023-05-13T06:42:22.490Z,6.93
2023-05-13T06:44:50.320Z,6.90
2023-05-13T06:47:18.289Z,8.77
2023-05-13T06:49:47.571Z,8.70
2023-05-13T06:52:15.461Z,8.43
2023-05-13T06:54:43.232Z,6.75
2023-05-13T06:57:10.966Z,8.95
2023-05-13T06:59:38.736Z,8.90
2023-05-13T07:02:09.657Z,6.97
2023-05-13T07:04:37.734Z,12.32
2023-05-13T07:07:06.855Z,9.90
2023-05-13T07:09:34.649Z,5.50
2023-05-13T07:12:02.519Z,4.95
2023-05-13T07:14:30.571Z,8.32
2023-05-13T07:16:58.776Z,7.25
2023-05-13T07:19:26.642Z,7.85
2023-05-13T07:21:54.504Z,7.10
2023-05-13T07:24:23.858Z,5.32
2023-05-13T07:26:51.744Z,8.48
2023-05-13T07:29:19.626Z,4.82
2023-05-13T07:31:47.502Z,8.48
2023-05-13T07:34:15.334Z,6.93
2023-05-13T07:36:43.081Z,7.05
2023-05-13T07:39:10.885Z,3.80
2023-05-13T07:41:40.049Z,3.83
2023-05-13T07:44:11.840Z,4.65
2023-05-13T07:46:39.745Z,7.72
2023-05-13T07:49:08.872Z,5.60
2023-05-13T07:51:37.630Z,5.43
2023-05-13T07:54:05.439Z,5.20
2023-05-13T07:56:33.690Z,4.57
2023-05-13T07:59:02.912Z,6.22
2023-05-13T08:01:30.857Z,8.05
2023-05-13T08:03:58.939Z,8.77
2023-05-13T08:06:27.022Z,4.15
2023-05-13T08:08:54.875Z,6.82
2023-05-13T08:11:22.703Z,9.82
2023-05-13T08:13:50.632Z,4.68
2023-05-13T08:16:19.865Z,5.70
2023-05-13T08:18:47.793Z,5.63
2023-05-13T08:21:15.693Z,5.78
2023-05-13T08:23:45.980Z,5.20
2023-05-13T08:26:14.201Z,5.40
2023-05-13T08:28:42.673Z,3.55
2023-05-13T08:31:12.603Z,7.45
2023-05-13T08:33:42.863Z,6.68
2023-05-13T08:36:11.337Z,3.22
2023-05-13T08:38:39.168Z,6.55
2023-05-13T08:41:07.873Z,6.20
2023-05-13T08:43:38.083Z,5.47
2023-05-13T08:46:10.035Z,7.38
2023-05-13T08:48:38.411Z,5.05
2023-05-13T08:51:08.062Z,7.88
2023-05-13T08:53:48.800Z,3.65
2023-05-13T08:56:16.711Z,6.80
2023-05-13T08:58:44.587Z,6.30
2023-05-13T09:01:12.663Z,6.35
2023-05-13T09:03:53.279Z,5.82
2023-05-13T09:06:22.444Z,10.45
2023-05-13T09:08:50.330Z,4.72
2023-05-13T09:11:18.322Z,8.48
2023-05-13T09:13:46.050Z,6.13
2023-05-13T09:16:14.754Z,6.45
2023-05-13T09:18:43.317Z,7.18
2023-05-13T09:21:25.896Z,5.65
2023-05-13T09:24:03.374Z,7.93
2023-05-13T09:26:31.472Z,5.13
2023-05-13T09:29:19.339Z,4.75
2023-05-13T09:31:49.887Z,8.57
2023-05-13T09:34:30.041Z,5.53
2023-05-13T09:37:02.319Z,5.57
2023-05-13T09:39:32.998Z,3.45
2023-05-13T09:42:04.880Z,4.60
2023-05-13T09:44:33.546Z,5.32
2023-05-13T09:47:02.377Z,3.60
2023-05-13T09:49:32.317Z,4.20
2023-05-13T09:52:01.414Z,4.15
2023-05-13T09:54:35.441Z,16.40
2023-05-13T09:57:03.992Z,6.80
2023-05-13T09:59:33.220Z,5.22
2023-05-13T10:02:05.131Z,6.95
2023-05-13T10:04:33.391Z,6.40
2023-05-13T10:07:05.285Z,3.47
2023-05-13T10:09:36.748Z,6.85
2023-05-13T10:12:07.837Z,9.40
2023-05-13T10:14:36.876Z,3.55
2023-05-13T10:19:34.004Z,3.58
2023-05-13T10:22:03.927Z,7.10
2023-05-13T10:24:32.563Z,5.30
2023-05-13T10:27:03.219Z,3.28
2023-05-13T10:29:31.565Z,9.70
2023-05-13T10:32:00.590Z,4.90
2023-05-13T10:34:29.415Z,2.42
2023-05-13T10:37:12.773Z,4.53
2023-05-13T10:40:05.703Z,4.07
2023-05-13T10:42:40.960Z,3.75
2023-05-13T10:45:09.533Z,6.72
2023-05-13T10:47:38.450Z,5.47
2023-05-13T10:50:08.136Z,4.10
2023-05-13T10:52:48.801Z,3.85
2023-05-13T10:55:19.248Z,4.05
2023-05-13T10:58:09.729Z,6.40
2023-05-13T11:00:39.024Z,5.00
2023-05-13T11:03:14.853Z,6.78
2023-05-13T11:05:44.894Z,3.42
2023-05-13T11:08:33.853Z,6.22
2023-05-13T11:11:01.693Z,3.65
2023-05-13T11:13:38.083Z,3.60
2023-05-13T11:16:08.524Z,6.90
2023-05-13T11:18:36.512Z,4.25
2023-05-13T11:21:05.795Z,6.30
2023-05-13T11:23:51.445Z,3.13
2023-05-13T11:26:21.447Z,2.72
2023-05-13T11:28:55.574Z,3.40
2023-05-13T11:31:23.816Z,4.15
2023-05-13T11:34:07.993Z,4.90
2023-05-13T11:36:37.055Z,4.80
2023-05-13T11:39:12.288Z,3.58
2023-05-13T11:41:42.239Z,6.90
2023-05-13T11:44:10.480Z,8.60
2023-05-13T11:46:38.468Z,6.88
2023-05-13T11:49:07.349Z,6.75
2023-05-13T11:51:35.767Z,6.32
2023-05-13T11:54:04.931Z,3.42
2023-05-13T11:56:34.306Z,5.35
2023-05-13T11:59:22.954Z,4.40
2023-05-13T12:02:01.037Z,7.80
2023-05-13T12:04:30.619Z,5.50
2023-05-13T12:06:58.684Z,8.52
2023-05-13T12:09:26.916Z,5.80
2023-05-13T12:11:56.420Z,4.80
2023-05-13T12:14:27.823Z,3.63
2023-05-13T12:16:57.320Z,10.52
2023-05-13T12:19:25.187Z,4.72
2023-05-13T12:21:53.057Z,3.25
2023-05-13T12:24:22.088Z,6.72
2023-05-13T12:26:50.336Z,4.43
2023-05-13T12:29:19.425Z,4.28
2023-05-13T12:32:06.086Z,3.45
2023-05-13T12:34:35.661Z,10.40
2023-05-13T12:37:13.781Z,5.30
2023-05-13T12:39:42.653Z,4.38
2023-05-13T12:42:18.332Z,3.30
2023-05-13T12:44:47.960Z,3.17
2023-05-13T12:47:19.929Z,8.30
2023-05-13T12:49:54.288Z,6.75
2023-05-13T12:52:22.433Z,4.40
2023-05-13T12:54:50.450Z,3.75
2023-05-13T12:57:18.894Z,3.60
2023-05-13T12:59:48.179Z,5.53
2023-05-13T13:02:16.126Z,6.75
2023-05-13T13:04:43.905Z,4.95
2023-05-13T13:07:14.494Z,3.78
2023-05-13T13:09:42.376Z,5.03
2023-05-13T13:12:10.114Z,2.55
2023-05-13T13:14:37.926Z,3.97
2023-05-13T13:17:07.493Z,3.63
2023-05-13T13:19:35.436Z,5.82
2023-05-13T13:22:03.355Z,7.10
2023-05-13T13:24:31.564Z,4.82
2023-05-13T13:26:59.476Z,4.82
2023-05-13T13:29:27.257Z,4.30
2023-05-13T13:31:55.097Z,7.38
2023-05-13T13:34:24.257Z,2.80
2023-05-13T13:36:52.166Z,3.85
2023-05-13T13:46:53.258Z,4.88
2023-05-13T13:49:23.924Z,3.03
2023-05-13T13:51:53.766Z,5.63
2023-05-13T13:54:21.774Z,7.80
2023-05-13T13:56:49.709Z,10.93
2023-05-13T13:59:19.242Z,7.75
2023-05-13T14:01:47.502Z,5.10
2023-05-13T14:04:16.666Z,4.25
2023-05-13T14:06:47.197Z,4.78
2023-05-13T14:09:16.474Z,3.72
2023-05-13T14:11:44.250Z,5.20
2023-05-13T14:14:12.094Z,4.50
2023-05-13T14:16:39.990Z,3.60
2023-05-13T14:19:08.090Z,11.07
2023-05-13T14:21:36.288Z,4.63
2023-05-13T14:24:04.300Z,3.15
2023-05-13T14:26:33.475Z,6.13
2023-05-13T14:29:01.333Z,5.32
2023-05-13T14:31:29.855Z,4.15
2023-05-13T14:33:58.379Z,6.32
2023-05-13T14:36:26.769Z,3.42
2023-05-13T14:38:54.722Z,4.05
2023-05-13T14:41:23.188Z,6.15
2023-05-13T14:43:52.718Z,4.47
2023-05-13T14:46:20.564Z,6.05
2023-05-13T14:48:48.362Z,4.65
2023-05-13T14:51:16.217Z,5.28
2023-05-13T14:53:44.298Z,3.35
2023-05-13T14:56:12.490Z,5.18
2023-05-13T14:58:40.501Z,4.53
2023-05-13T15:01:09.742Z,5.95
2023-05-13T15:03:38.072Z,6.22
2023-05-13T15:06:06.636Z,3.53
2023-05-13T15:08:34.454Z,4.57
2023-05-13T15:11:02.465Z,5.20
2023-05-13T15:13:35.239Z,8.45
2023-05-13T15:16:03.543Z,7.10
2023-05-13T15:18:32.927Z,8.35
2023-05-13T15:21:00.712Z,5.30
2023-05-13T15:23:28.761Z,6.45
2023-05-13T15:25:56.585Z,4.75
2023-05-13T15:28:24.400Z,5.22
2023-05-13T15:30:52.356Z,7.20
2023-05-13T15:33:20.137Z,8.02
2023-05-13T15:35:49.263Z,6.00
2023-05-13T15:38:17.061Z,8.93
2023-05-13T15:40:44.885Z,7.05
2023-05-13T15:43:12.762Z,8.95
2023-05-13T15:45:40.792Z,8.05
2023-05-13T15:48:09.170Z,4.78
2023-05-13T15:50:38.315Z,8.68
2023-05-13T15:53:07.448Z,5.35
2023-05-13T15:55:37.045Z,7.43
2023-05-13T15:58:04.847Z,4.90
2023-05-13T16:00:32.740Z,5.38
2023-05-13T16:03:00.776Z,4.97
2023-05-13T16:05:28.924Z,4.70
2023-05-13T16:07:57.779Z,5.55
2023-05-13T16:10:27.159Z,4.18
2023-05-13T16:12:55.024Z,6.13
2023-05-13T16:15:22.887Z,4.90
2023-05-13T16:17:50.798Z,5.95
2023-05-13T16:20:18.707Z,3.47
2023-05-13T16:22:46.667Z,4.40
2023-05-13T16:25:20.281Z,4.63
2023-05-13T16:27:49.584Z,4.93
2023-05-13T16:30:17.626Z,6.70
2023-05-13T16:32:47.749Z,5.72
2023-05-13T16:35:15.681Z,3.67
2023-05-13T16:37:43.626Z,3.20
2023-05-13T16:40:14.513Z,7.15
2023-05-13T16:42:43.671Z,5.47
2023-05-13T16:45:13.391Z,3.22
2023-05-13T16:47:41.354Z,4.63
2023-05-13T16:50:10.096Z,4.00
2023-05-13T16:52:37.913Z,8.13
2023-05-13T16:55:06.545Z,4.95
2023-05-13T16:57:34.322Z,2.80
2023-05-13T17:00:02.145Z,3.75
2023-05-13T17:02:31.436Z,5.13
2023-05-13T17:04:59.597Z,3.97
2023-05-13T17:07:27.404Z,6.15
2023-05-13T17:09:55.281Z,3.70
2023-05-13T17:12:23.258Z,3.55
2023-05-13T17:14:51.905Z,5.90
2023-05-13T17:17:19.809Z,3.10
2023-05-13T17:19:49.238Z,5.65
2023-05-13T17:22:17.143Z,8.05
2023-05-13T17:24:45.057Z,3.55
2023-05-13T17:27:12.882Z,5.00
2023-05-13T17:29:40.740Z,4.13
2023-05-13T17:32:09.181Z,5.05
2023-05-13T17:34:37.063Z,4.28
2023-05-13T17:37:06.613Z,4.35
2023-05-13T17:39:34.446Z,3.20
2023-05-13T17:42:02.431Z,7.93
2023-05-13T17:44:30.424Z,4.32
2023-05-13T17:46:58.240Z,4.43
2023-05-13T17:49:26.118Z,5.53
2023-05-13T17:51:53.963Z,6.50
2023-05-13T17:54:23.344Z,4.55
2023-05-13T17:56:51.175Z,10.93
2023-05-13T17:59:19.034Z,5.35
2023-05-13T18:01:47.022Z,4.00
2023-05-13T18:04:14.916Z,5.72
2023-05-13T18:06:42.820Z,3.35
2023-05-13T18:09:11.998Z,5.75
2023-05-13T18:11:41.379Z,4.53
2023-05-13T18:14:11.521Z,4.95
2023-05-13T18:16:39.409Z,5.30
2023-05-13T18:19:07.668Z,3.53
2023-05-13T18:21:35.642Z,3.90
2023-05-13T18:24:03.496Z,6.50
2023-05-13T18:26:31.310Z,3.42
2023-05-13T18:29:03.895Z,4.85
2023-05-13T18:32:16.314Z,6.05
2023-05-13T18:39:15.681Z,4.85
2023-05-13T18:41:43.729Z,4.55
2023-05-13T18:44:14.207Z,3.70
2023-05-13T18:46:44.508Z,3.95
2023-05-13T18:53:30.138Z,4.55
2023-05-13T18:55:58.178Z,6.65
2023-05-13T18:58:26.810Z,6.28
2023-05-13T19:00:56.654Z,3.85
2023-05-13T19:03:24.886Z,7.18
2023-05-13T19:09:38.092Z,8.00
2023-05-13T19:12:06.393Z,5.00
2023-05-13T19:14:34.395Z,4.95
2023-05-13T19:17:13.895Z,12.13
2023-05-13T19:20:12.472Z,8.45
2023-05-13T19:22:40.514Z,7.13
2023-05-13T19:25:09.356Z,5.25
2023-05-13T19:27:38.206Z,8.52
2023-05-13T19:33:19.466Z,4.03
2023-05-13T19:38:59.356Z,4.95
2023-05-13T19:41:27.259Z,7.15
2023-05-13T19:43:55.140Z,8.18
2023-05-13T19:46:23.230Z,8.07
2023-05-13T19:48:52.617Z,11.32
2023-05-13T19:51:20.521Z,13.45
2023-05-13T19:53:48.359Z,7.53
2023-05-13T19:56:16.235Z,6.43
2023-05-13T19:58:44.173Z,7.45
2023-05-13T20:01:14.357Z,6.45
2023-05-13T20:03:42.322Z,11.73
2023-05-13T20:06:11.987Z,7.63
2023-05-13T20:08:39.897Z,10.07
2023-05-13T20:11:07.693Z,13.63
2023-05-13T20:13:35.743Z,7.63
2023-05-13T20:16:10.349Z,7.97
2023-05-13T20:18:39.110Z,8.30
2023-05-13T20:21:07.494Z,7.45
2023-05-13T20:24:05.507Z,6.63
2023-05-13T20:26:35.778Z,8.55
2023-05-13T20:29:04.248Z,6.30
2023-05-13T20:31:32.123Z,10.13
2023-05-13T20:34:00.352Z,7.43
2023-05-13T20:36:28.201Z,8.13
2023-05-13T20:39:10.953Z,14.50
2023-05-13T20:41:47.608Z,9.18
2023-05-13T20:44:16.962Z,9.65
2023-05-13T20:46:45.060Z,10.27
2023-05-13T20:49:13.522Z,9.05
2023-05-13T20:51:42.135Z,8.52
2023-05-13T20:54:10.931Z,12.07
2023-05-13T20:56:40.535Z,10.15
2023-05-13T20:59:09.419Z,8.27
2023-05-13T21:01:37.337Z,7.22
2023-05-13T21:04:06.617Z,12.38
2023-05-13T21:06:36.845Z,8.57
2023-05-13T21:09:05.330Z,7.35
2023-05-13T21:11:33.077Z,8.10
2023-05-13T21:14:02.208Z,9.63
2023-05-13T21:16:31.322Z,8.50
2023-05-13T21:18:59.425Z,11.48
2023-05-13T21:21:27.348Z,9.18
2023-05-13T21:23:55.290Z,7.20
2023-05-13T21:26:23.081Z,8.00
2023-05-13T21:28:50.942Z,8.68
2023-05-13T21:31:20.100Z,12.23
2023-05-13T21:33:49.036Z,9.38
2023-05-13T21:36:17.042Z,8.40
2023-05-13T21:38:45.316Z,13.80
2023-05-13T21:41:13.383Z,18.27
2023-05-13T21:43:41.273Z,15.48
2023-05-13T21:46:09.698Z,15.63
2023-05-13T21:48:39.053Z,27.00
2023-05-13T21:51:07.054Z,26.17
2023-05-13T21:53:34.817Z,25.90
2023-05-13T21:56:03.095Z,27.15
2023-05-13T21:58:30.772Z,22.58
2023-05-13T22:00:59.997Z,22.07
2023-05-13T22:03:28.258Z,21.40
2023-05-13T22:05:57.358Z,17.38
2023-05-13T22:08:25.248Z,18.63
2023-05-13T22:10:53.099Z,15.40
2023-05-13T22:13:21.539Z,14.73
2023-05-13T22:15:49.366Z,12.95
2023-05-13T22:18:17.195Z,12.27
2023-05-13T22:20:45.007Z,11.27
2023-05-13T22:23:14.066Z,14.60
2023-05-13T22:25:41.780Z,15.82
2023-05-13T22:28:09.527Z,12.07
2023-05-13T22:30:37.380Z,11.77
2023-05-13T22:33:05.345Z,14.05
2023-05-13T22:35:36.368Z,13.02
2023-05-13T22:38:05.177Z,15.13
2023-05-13T22:40:34.398Z,15.77
2023-05-13T22:43:02.211Z,17.33
2023-05-13T22:45:29.961Z,22.27
2023-05-13T22:47:57.772Z,16.67
2023-05-13T22:50:25.700Z,14.52
2023-05-13T22:52:53.709Z,13.15
2023-05-13T22:55:22.095Z,14.82
2023-05-13T22:57:51.228Z,11.55
2023-05-13T23:00:19.082Z,11.90
2023-05-13T23:02:46.828Z,16.63
2023-05-13T23:05:14.844Z,15.15
2023-05-13T23:07:42.770Z,20.00
2023-05-13T23:10:11.375Z,35.63
2023-05-13T23:12:39.313Z,28.17
2023-05-13T23:15:11.664Z,22.23
2023-05-13T23:17:39.404Z,20.50
2023-05-13T23:20:08.611Z,19.50
2023-05-13T23:22:36.577Z,16.70
2023-05-13T23:25:04.859Z,17.13
2023-05-13T23:27:33.214Z,18.27
2023-05-13T23:30:00.960Z,26.98
2023-05-13T23:32:30.104Z,20.47
2023-05-13T23:34:57.999Z,25.90
2023-05-13T23:37:25.753Z,39.28
2023-05-13T23:39:53.613Z,37.47
2023-05-13T23:42:21.691Z,41.83
2023-05-13T23:44:49.588Z,62.67
2023-05-13T23:47:17.405Z,146.32
2023-05-13T23:49:46.474Z,120.75
2023-05-13T23:52:14.255Z,95.45
2023-05-13T23:54:42.052Z,44.13
2023-05-13T23:57:09.865Z,42.50
2023-05-13T23:59:37.565Z,40.33
